Terminal Aerodrome Forecast
Issued by NWS Wilmington, OH

Current Version | Previous Version | Graphics & Text | Print | Product List | Glossary On
Versions: 1 2 3 4 5 6 7 8 9 10 11 12 13 14 15 16 17 18 19 20 21 22 23 24
000
FTUS41 KILN 211133
TAFILN
TAF
KILN 211133Z 2112/2212 18006KT P6SM OVC200
     FM212100 21007KT P6SM VCSH SCT035 OVC090
     FM220300 20005KT 5SM BR VCSH BKN018 OVC025
     FM220500 21004KT 3SM BR BKN015 OVC025
     FM220600 22004KT 3SM BR OVC012=

USA.gov is the U.S. government's official web portal to all federal, state and local government web resources and services.